Denver, Colorado
Traffic Map
Current Weather Conditions
Denver, Colorado
Few Clouds
Few Clouds
14°
Feels Like: 14°
Wind Chill: 14° Ceiling: Unl
Heat Index: 14° Visibility: 50mi
Dew Point: -4° Wind: 0mph
Humidity: 29% Direction: ° ()
Pressure: 30.27in Gusts: 0mph
Raw Report DataKBJC 171546Z 00000KT 50SM FEW150 14/M04 A3027
Traffic Incident Summary
Active as of:
Severity:
Category:
InformationThere was an issue retrieving the traffic information for this location. Please try a different location or try again shortly.
Advertisements